createdAt,value
2018-03-21T00:01:50.402Z,0.49
2018-03-21T00:04:23.659Z,0.46
2018-03-21T00:06:57.721Z,0.45
2018-03-21T00:09:30.993Z,0.44
2018-03-21T00:12:04.269Z,0.45
2018-03-21T00:14:37.550Z,0.45
2018-03-21T01:48:18.438Z,0.27
2018-03-21T01:50:51.705Z,0.26
2018-03-21T01:53:24.984Z,0.23
2018-03-21T01:55:58.279Z,0.22
2018-03-21T01:58:31.558Z,0.24
2018-03-21T03:32:08.628Z,0.05
2018-03-21T03:34:41.914Z,0.04
2018-03-21T03:37:15.177Z,0.04
2018-03-21T03:39:48.469Z,0.04
2018-03-21T03:42:22.502Z,0.06
2018-03-21T03:44:55.777Z,0.08
2018-03-21T04:46:05.234Z,-0.20
2018-03-21T04:48:38.497Z,-0.26
2018-03-21T04:51:12.561Z,-0.26
2018-03-21T04:53:45.822Z,-0.28
2018-03-21T04:56:19.126Z,-0.34
2018-03-21T04:58:52.394Z,-0.35
2018-03-21T05:30:53.614Z,-0.58
2018-03-21T05:33:26.890Z,-0.60
2018-03-21T05:36:00.162Z,-0.57
2018-03-21T05:38:33.463Z,-0.56
2018-03-21T05:41:06.732Z,-0.54
2018-03-21T05:43:40.028Z,-0.56
2018-03-21T05:46:13.294Z,-0.56
2018-03-21T05:48:46.578Z,-0.61
2018-03-21T05:51:20.642Z,-0.67
2018-03-21T05:53:53.901Z,-0.67
2018-03-21T05:56:27.962Z,-0.63
2018-03-21T05:59:01.228Z,-0.67
2018-03-21T06:01:34.522Z,-0.70
2018-03-21T06:04:07.779Z,-0.68
2018-03-21T06:06:41.141Z,-0.70
2018-03-21T06:09:14.430Z,-0.69
2018-03-21T06:11:47.694Z,-0.67
2018-03-21T06:14:20.984Z,-0.63
2018-03-21T06:16:54.255Z,-0.60
2018-03-21T06:19:28.325Z,-0.56
2018-03-21T06:22:01.606Z,-0.57
2018-03-21T06:24:34.861Z,-0.57
2018-03-21T06:27:08.905Z,-0.55
2018-03-21T06:29:42.166Z,-0.54
2018-03-21T06:32:16.220Z,-0.55
2018-03-21T06:34:49.505Z,-0.54
2018-03-21T06:37:22.781Z,-0.52
2018-03-21T06:39:56.080Z,-0.57
2018-03-21T06:42:29.340Z,-0.56
2018-03-21T06:45:02.617Z,-0.54
2018-03-21T06:47:35.869Z,-0.49
2018-03-21T06:50:09.151Z,-0.51
2018-03-21T06:52:42.412Z,-0.51
2018-03-21T06:55:15.704Z,-0.54
2018-03-21T06:57:48.957Z,-0.57
2018-03-21T07:00:22.246Z,-0.60
2018-03-21T07:02:55.601Z,-0.61
2018-03-21T07:05:29.625Z,-0.56
2018-03-21T07:08:03.686Z,-0.50
2018-03-21T07:10:36.938Z,-0.47
2018-03-21T07:13:10.226Z,-0.44
2018-03-21T07:16:01.906Z,-0.41
2018-03-21T07:18:35.191Z,-0.44
2018-03-21T07:21:08.443Z,-0.39
2018-03-21T07:23:41.713Z,-0.27
2018-03-21T07:26:14.984Z,-0.18
2018-03-21T07:28:48.260Z,-0.18
2018-03-21T08:00:56.915Z,-0.16
2018-03-21T08:03:30.173Z,-0.09
2018-03-21T08:06:03.470Z,-0.05
2018-03-21T08:08:36.732Z,-0.09
2018-03-21T08:11:10.037Z,-0.04
2018-03-21T08:13:43.382Z,-0.02
2018-03-21T09:01:48.489Z,0.38
2018-03-21T09:04:21.765Z,0.34
2018-03-21T09:06:55.018Z,0.34
2018-03-21T09:09:28.312Z,0.33
2018-03-21T09:12:01.573Z,0.38
2018-03-21T09:14:35.607Z,0.40
2018-03-21T10:02:43.109Z,1.70
2018-03-21T10:05:16.361Z,1.73
2018-03-21T10:07:49.637Z,1.81
2018-03-21T10:10:22.884Z,1.89
2018-03-21T10:12:56.165Z,2.02
2018-03-21T11:04:01.682Z,1.93
2018-03-21T11:06:34.929Z,1.99
2018-03-21T11:09:08.967Z,1.97
2018-03-21T11:11:42.285Z,1.99
2018-03-21T11:14:15.526Z,1.96
2018-03-21T12:02:22.657Z,2.89
2018-03-21T12:04:55.930Z,2.95
2018-03-21T12:07:29.202Z,3.01
2018-03-21T12:10:02.465Z,3.06
2018-03-21T12:12:36.482Z,3.09
2018-03-21T13:03:16.201Z,2.49
2018-03-21T13:05:49.478Z,2.58
2018-03-21T13:08:22.726Z,2.66
2018-03-21T13:10:56.004Z,2.71
2018-03-21T13:13:29.263Z,2.80
2018-03-21T14:01:35.046Z,3.39
2018-03-21T14:04:08.288Z,3.38
2018-03-21T14:06:41.562Z,3.44
2018-03-21T14:09:14.838Z,3.48
2018-03-21T14:11:48.094Z,3.53
2018-03-21T14:14:21.353Z,3.57
2018-03-21T15:02:25.922Z,3.97
2018-03-21T15:04:59.160Z,3.94
2018-03-21T15:07:32.453Z,4.12
2018-03-21T15:10:05.756Z,4.14
2018-03-21T15:12:38.981Z,4.10
2018-03-21T15:47:03.067Z,3.71
2018-03-21T15:49:36.313Z,3.67
2018-03-21T15:52:10.353Z,3.66
2018-03-21T15:54:43.635Z,3.64
2018-03-21T15:57:16.872Z,3.60
2018-03-21T15:59:50.136Z,3.55
2018-03-21T16:31:40.861Z,3.72
2018-03-21T16:34:14.874Z,3.87
2018-03-21T16:36:48.948Z,4.03
2018-03-21T16:39:22.211Z,4.20
2018-03-21T16:41:55.473Z,4.37
2018-03-21T16:44:29.490Z,4.50
2018-03-21T16:47:03.532Z,4.66
2018-03-21T16:49:36.777Z,4.78
2018-03-21T16:52:10.059Z,4.90
2018-03-21T16:54:43.313Z,4.98
2018-03-21T16:57:16.589Z,4.97
2018-03-21T16:59:50.598Z,4.91
2018-03-21T17:02:23.877Z,4.77
2018-03-21T17:04:57.898Z,4.57
2018-03-21T17:07:31.929Z,4.38
2018-03-21T17:10:05.231Z,4.20
2018-03-21T17:12:38.505Z,4.05
2018-03-21T17:15:11.762Z,3.91
2018-03-21T17:17:45.042Z,3.78
2018-03-21T17:20:18.291Z,3.68
2018-03-21T17:22:52.338Z,3.57
2018-03-21T17:25:25.586Z,3.45
2018-03-21T17:27:59.636Z,3.35
2018-03-21T17:30:32.877Z,3.28
2018-03-21T17:33:06.921Z,3.25
2018-03-21T17:35:40.182Z,3.07
2018-03-21T17:38:14.301Z,2.95
2018-03-21T17:40:47.573Z,3.04
2018-03-21T17:43:20.852Z,3.03
2018-03-21T17:45:54.127Z,3.01
2018-03-21T17:48:27.369Z,2.99
2018-03-21T17:51:00.653Z,2.95
2018-03-21T17:53:33.892Z,2.93
2018-03-21T17:56:07.266Z,2.90
2018-03-21T17:58:40.543Z,2.87
2018-03-21T18:01:13.791Z,2.83
2018-03-21T18:03:47.064Z,2.80
2018-03-21T18:06:20.360Z,2.78
2018-03-21T18:08:54.361Z,2.75
2018-03-21T18:11:28.387Z,2.74
2018-03-21T18:14:01.667Z,2.71
2018-03-21T18:16:34.949Z,2.68
2018-03-21T18:19:08.196Z,2.65
2018-03-21T18:21:41.463Z,2.62
2018-03-21T18:24:14.709Z,2.60
2018-03-21T18:26:47.986Z,2.60
2018-03-21T18:29:21.232Z,2.57
2018-03-21T18:31:54.505Z,2.56
2018-03-21T18:34:27.766Z,2.55
2018-03-21T18:37:01.059Z,2.53
2018-03-21T18:39:34.335Z,2.52
2018-03-21T18:42:07.606Z,2.50
2018-03-21T18:44:40.860Z,2.48
2018-03-21T18:47:14.133Z,2.45
2018-03-21T18:49:47.382Z,2.42
2018-03-21T18:52:20.652Z,2.40
2018-03-21T18:54:53.936Z,2.39
2018-03-21T18:57:27.191Z,2.38
2018-03-21T19:00:00.463Z,2.37
2018-03-21T19:02:33.883Z,2.36
2018-03-21T19:05:07.173Z,2.35
2018-03-21T19:07:40.561Z,2.35
2018-03-21T19:10:13.823Z,2.33
2018-03-21T19:12:47.859Z,2.31
2018-03-21T19:15:21.112Z,2.29
2018-03-21T19:17:54.402Z,2.28
2018-03-21T19:20:27.657Z,2.27
2018-03-21T19:23:00.937Z,2.26
2018-03-21T19:25:34.186Z,2.25
2018-03-21T19:28:07.466Z,2.23
2018-03-21T19:30:40.742Z,2.21
2018-03-21T19:33:14.991Z,2.21
2018-03-21T19:35:48.269Z,2.21
2018-03-21T19:38:21.523Z,2.20
2018-03-21T19:40:54.809Z,2.18
2018-03-21T19:43:28.050Z,2.17
2018-03-21T19:46:01.338Z,2.16
2018-03-21T19:48:34.590Z,2.14
2018-03-21T19:51:07.874Z,2.12
2018-03-21T19:53:41.125Z,2.09
2018-03-21T19:56:14.397Z,2.08
2018-03-21T19:58:47.642Z,2.06
2018-03-21T20:01:21.691Z,2.05
2018-03-21T20:03:54.974Z,2.02
2018-03-21T20:06:28.223Z,2.02
2018-03-21T20:09:01.508Z,2.00
2018-03-21T20:11:34.762Z,2.00
2018-03-21T20:14:08.032Z,1.98
2018-03-21T20:16:42.053Z,1.96
2018-03-21T20:19:15.326Z,1.94
2018-03-21T20:21:49.351Z,1.94
2018-03-21T20:24:23.395Z,1.94
2018-03-21T20:26:56.654Z,1.89
2018-03-21T20:29:30.706Z,1.88
2018-03-21T20:32:03.974Z,1.85
2018-03-21T20:34:37.245Z,1.82
2018-03-21T20:37:11.273Z,1.81
2018-03-21T20:39:44.554Z,1.77
2018-03-21T20:42:17.806Z,1.74
2018-03-21T20:44:51.072Z,1.70
2018-03-21T20:47:24.321Z,1.70
2018-03-21T20:49:57.618Z,1.67
2018-03-21T20:52:30.877Z,1.64
2018-03-21T20:55:04.976Z,1.64
2018-03-21T20:57:38.225Z,1.63
2018-03-21T21:00:12.271Z,1.65
2018-03-21T21:02:45.552Z,1.65
2018-03-21T21:05:18.816Z,1.62
2018-03-21T21:07:52.102Z,1.61
2018-03-21T21:10:25.350Z,1.59
2018-03-21T21:12:58.630Z,1.57
2018-03-21T21:15:31.886Z,1.56
2018-03-21T21:18:05.157Z,1.54
2018-03-21T21:20:38.424Z,1.53
2018-03-21T21:23:11.698Z,1.52
2018-03-21T21:25:44.961Z,1.50
2018-03-21T21:28:18.238Z,1.49
2018-03-21T21:30:51.532Z,1.47
2018-03-21T21:33:24.790Z,1.47
2018-03-21T21:35:58.065Z,1.48
2018-03-21T21:38:31.365Z,1.29
2018-03-21T21:41:04.638Z,1.24
2018-03-21T21:43:37.930Z,1.21
2018-03-21T21:46:11.177Z,1.18
2018-03-21T21:48:44.465Z,1.15
2018-03-21T21:51:17.775Z,1.11
2018-03-21T21:53:51.022Z,1.12
2018-03-21T21:56:25.075Z,1.11
2018-03-21T21:58:58.330Z,1.10
2018-03-21T22:01:32.385Z,1.09
2018-03-21T22:04:05.643Z,1.07
2018-03-21T22:06:38.948Z,1.07
2018-03-21T22:09:12.261Z,1.06
2018-03-21T22:11:45.493Z,1.05
2018-03-21T22:14:18.752Z,1.05
2018-03-21T22:16:52.033Z,1.03
2018-03-21T22:19:25.294Z,1.02
2018-03-21T22:21:58.592Z,1.00
2018-03-21T22:24:32.608Z,1.01
2018-03-21T22:27:06.672Z,1.00
2018-03-21T22:29:39.953Z,0.97
2018-03-21T22:32:13.201Z,0.96
2018-03-21T22:34:47.248Z,0.95
2018-03-21T22:37:20.520Z,0.93
2018-03-21T22:39:53.801Z,0.91
2018-03-21T22:42:27.850Z,0.87
2018-03-21T22:45:01.127Z,0.86
2018-03-21T22:47:34.401Z,0.83
2018-03-21T22:50:08.453Z,0.80
2018-03-21T22:52:41.742Z,0.78
2018-03-21T22:55:15.068Z,0.76
2018-03-21T22:57:48.320Z,0.72
2018-03-21T23:00:21.597Z,0.71
2018-03-21T23:02:55.618Z,0.70
2018-03-21T23:05:28.900Z,0.67
2018-03-21T23:08:02.197Z,0.64
2018-03-21T23:10:36.225Z,0.65
2018-03-21T23:13:09.526Z,0.63
2018-03-21T23:15:42.769Z,0.59
2018-03-21T23:18:16.065Z,0.57
2018-03-21T23:20:49.329Z,0.57
2018-03-21T23:23:22.597Z,0.59
2018-03-21T23:25:55.879Z,0.58
2018-03-21T23:28:29.121Z,0.57
2018-03-21T23:31:02.406Z,0.60
2018-03-21T23:33:35.673Z,0.58
2018-03-21T23:36:08.952Z,0.60
2018-03-21T23:38:42.261Z,0.58
2018-03-21T23:41:15.606Z,0.57
2018-03-21T23:43:48.854Z,0.54
2018-03-21T23:46:22.139Z,0.53
2018-03-21T23:48:55.401Z,0.51
2018-03-21T23:51:29.454Z,0.55
2018-03-21T23:54:02.725Z,0.55
2018-03-21T23:56:36.787Z,0.64
2018-03-21T23:59:10.049Z,0.63
